sensor_id;sensor_type;location;lat;lon;timestamp;P1;durP1;ratioP1;P2;durP2;ratioP2
48207;SDS011;33997;53.278;9.708;2022-09-20T00:01:16;10.45;;;2.55;;
48207;SDS011;33997;53.278;9.708;2022-09-20T00:03:46;15.80;;;2.70;;
48207;SDS011;33997;53.278;9.708;2022-09-20T00:06:15;17.10;;;3.22;;
48207;SDS011;33997;53.278;9.708;2022-09-20T00:08:42;21.98;;;3.13;;
48207;SDS011;33997;53.278;9.708;2022-09-20T00:11:09;16.80;;;3.20;;
48207;SDS011;33997;53.278;9.708;2022-09-20T00:13:39;14.98;;;3.38;;
48207;SDS011;33997;53.278;9.708;2022-09-20T00:16:06;19.42;;;3.65;;
48207;SDS011;33997;53.278;9.708;2022-09-20T00:18:33;14.18;;;2.95;;
48207;SDS011;33997;53.278;9.708;2022-09-20T00:21:00;17.30;;;2.60;;
48207;SDS011;33997;53.278;9.708;2022-09-20T00:23:25;17.40;;;3.20;;
48207;SDS011;33997;53.278;9.708;2022-09-20T00:26:00;14.68;;;3.35;;
48207;SDS011;33997;53.278;9.708;2022-09-20T00:28:27;17.23;;;2.95;;
48207;SDS011;33997;53.278;9.708;2022-09-20T00:30:53;8.75;;;2.70;;
48207;SDS011;33997;53.278;9.708;2022-09-20T00:33:20;18.83;;;3.45;;
48207;SDS011;33997;53.278;9.708;2022-09-20T00:35:47;11.45;;;2.75;;
48207;SDS011;33997;53.278;9.708;2022-09-20T00:38:12;17.27;;;2.95;;
48207;SDS011;33997;53.278;9.708;2022-09-20T00:40:39;13.23;;;3.00;;
48207;SDS011;33997;53.278;9.708;2022-09-20T00:43:06;12.75;;;2.65;;
48207;SDS011;33997;53.278;9.708;2022-09-20T00:45:31;8.95;;;2.35;;
48207;SDS011;33997;53.278;9.708;2022-09-20T00:48:04;8.57;;;2.83;;
48207;SDS011;33997;53.278;9.708;2022-09-20T00:50:50;17.75;;;3.17;;
48207;SDS011;33997;53.278;9.708;2022-09-20T00:55:54;13.55;;;2.45;;
48207;SDS011;33997;53.278;9.708;2022-09-20T00:58:24;13.90;;;3.05;;
48207;SDS011;33997;53.278;9.708;2022-09-20T01:00:53;13.23;;;2.60;;
48207;SDS011;33997;53.278;9.708;2022-09-20T01:03:20;13.90;;;3.53;;
48207;SDS011;33997;53.278;9.708;2022-09-20T01:05:49;11.68;;;3.30;;
48207;SDS011;33997;53.278;9.708;2022-09-20T01:08:16;15.02;;;3.25;;
48207;SDS011;33997;53.278;9.708;2022-09-20T01:10:42;21.70;;;2.80;;
48207;SDS011;33997;53.278;9.708;2022-09-20T01:13:08;13.90;;;3.70;;
48207;SDS011;33997;53.278;9.708;2022-09-20T01:15:34;23.88;;;3.58;;
48207;SDS011;33997;53.278;9.708;2022-09-20T01:18:02;11.55;;;3.10;;
48207;SDS011;33997;53.278;9.708;2022-09-20T01:20:31;10.00;;;3.03;;
48207;SDS011;33997;53.278;9.708;2022-09-20T01:23:16;14.40;;;3.33;;
48207;SDS011;33997;53.278;9.708;2022-09-20T01:25:48;19.17;;;3.45;;
48207;SDS011;33997;53.278;9.708;2022-09-20T01:28:18;14.90;;;3.22;;
48207;SDS011;33997;53.278;9.708;2022-09-20T01:30:46;17.05;;;3.55;;
48207;SDS011;33997;53.278;9.708;2022-09-20T01:33:27;17.65;;;3.65;;
48207;SDS011;33997;53.278;9.708;2022-09-20T01:36:15;11.63;;;3.00;;
48207;SDS011;33997;53.278;9.708;2022-09-20T01:38:55;11.45;;;2.75;;
48207;SDS011;33997;53.278;9.708;2022-09-20T01:44:00;10.88;;;2.60;;
48207;SDS011;33997;53.278;9.708;2022-09-20T01:46:34;16.83;;;3.10;;
48207;SDS011;33997;53.278;9.708;2022-09-20T01:49:05;16.85;;;3.10;;
48207;SDS011;33997;53.278;9.708;2022-09-20T01:54:39;20.90;;;2.35;;
48207;SDS011;33997;53.278;9.708;2022-09-20T01:57:48;11.48;;;2.33;;
48207;SDS011;33997;53.278;9.708;2022-09-20T02:00:38;6.75;;;1.88;;
48207;SDS011;33997;53.278;9.708;2022-09-20T02:03:32;9.52;;;2.13;;
48207;SDS011;33997;53.278;9.708;2022-09-20T02:06:31;14.95;;;3.08;;
48207;SDS011;33997;53.278;9.708;2022-09-20T02:09:11;14.07;;;3.45;;
48207;SDS011;33997;53.278;9.708;2022-09-20T02:11:58;19.48;;;3.15;;
48207;SDS011;33997;53.278;9.708;2022-09-20T02:15:02;14.57;;;2.70;;
48207;SDS011;33997;53.278;9.708;2022-09-20T02:18:00;29.00;;;2.90;;
48207;SDS011;33997;53.278;9.708;2022-09-20T02:23:50;12.20;;;3.60;;
48207;SDS011;33997;53.278;9.708;2022-09-20T02:32:20;36.28;;;3.83;;
48207;SDS011;33997;53.278;9.708;2022-09-20T02:38:00;14.43;;;3.13;;
48207;SDS011;33997;53.278;9.708;2022-09-20T02:41:11;18.02;;;3.42;;
48207;SDS011;33997;53.278;9.708;2022-09-20T02:43:55;11.65;;;3.53;;
48207;SDS011;33997;53.278;9.708;2022-09-20T02:47:04;25.00;;;3.80;;
48207;SDS011;33997;53.278;9.708;2022-09-20T02:49:50;28.83;;;4.35;;
48207;SDS011;33997;53.278;9.708;2022-09-20T02:52:50;17.92;;;4.50;;
48207;SDS011;33997;53.278;9.708;2022-09-20T03:00:41;29.85;;;4.60;;
48207;SDS011;33997;53.278;9.708;2022-09-20T03:06:00;18.95;;;4.60;;
48207;SDS011;33997;53.278;9.708;2022-09-20T03:25:45;21.73;;;4.50;;
48207;SDS011;33997;53.278;9.708;2022-09-20T03:31:18;23.67;;;4.60;;
48207;SDS011;33997;53.278;9.708;2022-09-20T03:33:49;17.77;;;4.88;;
48207;SDS011;33997;53.278;9.708;2022-09-20T03:36:32;20.95;;;4.78;;
48207;SDS011;33997;53.278;9.708;2022-09-20T03:42:19;15.02;;;5.03;;
48207;SDS011;33997;53.278;9.708;2022-09-20T03:50:44;15.85;;;4.38;;
48207;SDS011;33997;53.278;9.708;2022-09-20T03:56:09;14.18;;;4.78;;
48207;SDS011;33997;53.278;9.708;2022-09-20T04:04:26;19.42;;;4.90;;
48207;SDS011;33997;53.278;9.708;2022-09-20T04:07:43;12.68;;;4.43;;
48207;SDS011;33997;53.278;9.708;2022-09-20T04:10:28;17.23;;;4.35;;
48207;SDS011;33997;53.278;9.708;2022-09-20T04:13:19;13.57;;;4.22;;
48207;SDS011;33997;53.278;9.708;2022-09-20T04:18:55;17.08;;;4.28;;
48207;SDS011;33997;53.278;9.708;2022-09-20T04:21:50;12.93;;;4.50;;
48207;SDS011;33997;53.278;9.708;2022-09-20T04:29:40;17.67;;;4.68;;
48207;SDS011;33997;53.278;9.708;2022-09-20T04:32:39;15.98;;;4.22;;
48207;SDS011;33997;53.278;9.708;2022-09-20T04:35:24;13.13;;;4.53;;
48207;SDS011;33997;53.278;9.708;2022-09-20T04:38:25;12.55;;;3.47;;
48207;SDS011;33997;53.278;9.708;2022-09-20T04:43:44;15.15;;;4.03;;
48207;SDS011;33997;53.278;9.708;2022-09-20T04:58:31;17.77;;;3.67;;
48207;SDS011;33997;53.278;9.708;2022-09-20T05:09:30;16.00;;;3.60;;
48207;SDS011;33997;53.278;9.708;2022-09-20T05:14:36;13.98;;;3.80;;
48207;SDS011;33997;53.278;9.708;2022-09-20T05:17:10;9.57;;;3.40;;
48207;SDS011;33997;53.278;9.708;2022-09-20T05:28:51;13.15;;;4.57;;
48207;SDS011;33997;53.278;9.708;2022-09-20T05:37:45;13.00;;;4.32;;
48207;SDS011;33997;53.278;9.708;2022-09-20T05:43:35;15.98;;;4.43;;
48207;SDS011;33997;53.278;9.708;2022-09-20T05:46:24;14.25;;;4.20;;
48207;SDS011;33997;53.278;9.708;2022-09-20T05:54:38;11.13;;;4.00;;
48207;SDS011;33997;53.278;9.708;2022-09-20T05:57:12;13.20;;;4.63;;
48207;SDS011;33997;53.278;9.708;2022-09-20T05:59:59;13.57;;;4.30;;
48207;SDS011;33997;53.278;9.708;2022-09-20T06:02:33;14.82;;;4.35;;
48207;SDS011;33997;53.278;9.708;2022-09-20T06:08:29;16.92;;;4.78;;
48207;SDS011;33997;53.278;9.708;2022-09-20T06:17:09;14.75;;;4.05;;
48207;SDS011;33997;53.278;9.708;2022-09-20T06:22:44;21.50;;;4.72;;
48207;SDS011;33997;53.278;9.708;2022-09-20T06:27:43;15.95;;;4.47;;
48207;SDS011;33997;53.278;9.708;2022-09-20T06:30:17;18.60;;;5.40;;
48207;SDS011;33997;53.278;9.708;2022-09-20T06:33:21;16.92;;;5.15;;
48207;SDS011;33997;53.278;9.708;2022-09-20T06:35:44;13.85;;;6.68;;
48207;SDS011;33997;53.278;9.708;2022-09-20T06:38:19;17.92;;;6.18;;
48207;SDS011;33997;53.278;9.708;2022-09-20T06:41:17;16.10;;;5.57;;
48207;SDS011;33997;53.278;9.708;2022-09-20T06:43:57;12.95;;;5.38;;
48207;SDS011;33997;53.278;9.708;2022-09-20T06:46:28;11.35;;;5.32;;
48207;SDS011;33997;53.278;9.708;2022-09-20T06:48:55;12.45;;;5.13;;
48207;SDS011;33997;53.278;9.708;2022-09-20T06:51:22;11.95;;;4.57;;
48207;SDS011;33997;53.278;9.708;2022-09-20T06:53:50;20.13;;;4.90;;
48207;SDS011;33997;53.278;9.708;2022-09-20T06:56:20;10.27;;;3.97;;
48207;SDS011;33997;53.278;9.708;2022-09-20T07:01:13;12.60;;;3.78;;
48207;SDS011;33997;53.278;9.708;2022-09-20T07:03:40;11.85;;;4.07;;
48207;SDS011;33997;53.278;9.708;2022-09-20T07:06:06;15.98;;;4.38;;
48207;SDS011;33997;53.278;9.708;2022-09-20T07:08:32;9.50;;;4.35;;
48207;SDS011;33997;53.278;9.708;2022-09-20T07:11:02;11.68;;;4.00;;
48207;SDS011;33997;53.278;9.708;2022-09-20T07:13:33;11.05;;;4.10;;
48207;SDS011;33997;53.278;9.708;2022-09-20T07:16:00;13.60;;;3.47;;
48207;SDS011;33997;53.278;9.708;2022-09-20T07:18:29;17.13;;;4.20;;
48207;SDS011;33997;53.278;9.708;2022-09-20T07:20:55;11.02;;;3.70;;
48207;SDS011;33997;53.278;9.708;2022-09-20T07:23:23;11.18;;;3.90;;
48207;SDS011;33997;53.278;9.708;2022-09-20T07:25:49;10.68;;;4.10;;
48207;SDS011;33997;53.278;9.708;2022-09-20T07:28:15;12.48;;;3.75;;
48207;SDS011;33997;53.278;9.708;2022-09-20T07:30:44;14.30;;;3.35;;
48207;SDS011;33997;53.278;9.708;2022-09-20T07:33:11;14.77;;;3.50;;
48207;SDS011;33997;53.278;9.708;2022-09-20T07:35:41;17.02;;;4.15;;
48207;SDS011;33997;53.278;9.708;2022-09-20T07:38:06;12.73;;;3.75;;
48207;SDS011;33997;53.278;9.708;2022-09-20T07:40:32;11.30;;;3.75;;
48207;SDS011;33997;53.278;9.708;2022-09-20T07:42:57;11.02;;;3.40;;
48207;SDS011;33997;53.278;9.708;2022-09-20T07:45:23;11.40;;;3.28;;
48207;SDS011;33997;53.278;9.708;2022-09-20T07:47:49;11.40;;;3.33;;
48207;SDS011;33997;53.278;9.708;2022-09-20T07:50:14;15.75;;;3.08;;
48207;SDS011;33997;53.278;9.708;2022-09-20T07:52:40;12.43;;;3.40;;
48207;SDS011;33997;53.278;9.708;2022-09-20T07:55:08;15.00;;;3.50;;
48207;SDS011;33997;53.278;9.708;2022-09-20T07:57:34;14.65;;;2.80;;
48207;SDS011;33997;53.278;9.708;2022-09-20T08:00:02;14.82;;;3.05;;
48207;SDS011;33997;53.278;9.708;2022-09-20T08:02:31;16.55;;;3.50;;
48207;SDS011;33997;53.278;9.708;2022-09-20T08:04:57;17.50;;;2.92;;
48207;SDS011;33997;53.278;9.708;2022-09-20T08:07:22;11.73;;;2.95;;
48207;SDS011;33997;53.278;9.708;2022-09-20T08:09:48;18.23;;;2.88;;
48207;SDS011;33997;53.278;9.708;2022-09-20T08:12:14;10.68;;;3.38;;
48207;SDS011;33997;53.278;9.708;2022-09-20T08:14:39;15.02;;;2.40;;
48207;SDS011;33997;53.278;9.708;2022-09-20T08:17:05;16.83;;;2.63;;
48207;SDS011;33997;53.278;9.708;2022-09-20T08:19:30;17.90;;;2.50;;
48207;SDS011;33997;53.278;9.708;2022-09-20T08:21:56;8.20;;;2.00;;
48207;SDS011;33997;53.278;9.708;2022-09-20T08:24:21;17.70;;;2.30;;
48207;SDS011;33997;53.278;9.708;2022-09-20T08:26:50;15.90;;;2.17;;
48207;SDS011;33997;53.278;9.708;2022-09-20T08:29:15;13.40;;;2.05;;
48207;SDS011;33997;53.278;9.708;2022-09-20T08:31:41;23.10;;;2.13;;
48207;SDS011;33997;53.278;9.708;2022-09-20T08:34:08;19.27;;;2.35;;
48207;SDS011;33997;53.278;9.708;2022-09-20T08:36:37;15.00;;;1.92;;
48207;SDS011;33997;53.278;9.708;2022-09-20T08:39:05;13.20;;;1.67;;
48207;SDS011;33997;53.278;9.708;2022-09-20T08:41:51;14.88;;;2.13;;
48207;SDS011;33997;53.278;9.708;2022-09-20T08:44:27;17.05;;;1.65;;
48207;SDS011;33997;53.278;9.708;2022-09-20T08:47:02;6.80;;;1.52;;
48207;SDS011;33997;53.278;9.708;2022-09-20T08:49:42;13.27;;;1.48;;
48207;SDS011;33997;53.278;9.708;2022-09-20T08:52:10;14.02;;;1.35;;
48207;SDS011;33997;53.278;9.708;2022-09-20T08:54:41;13.73;;;1.88;;
48207;SDS011;33997;53.278;9.708;2022-09-20T08:57:14;8.75;;;1.40;;
48207;SDS011;33997;53.278;9.708;2022-09-20T08:59:41;7.55;;;1.00;;
48207;SDS011;33997;53.278;9.708;2022-09-20T09:02:14;6.53;;;1.27;;
48207;SDS011;33997;53.278;9.708;2022-09-20T09:04:41;5.78;;;0.90;;
48207;SDS011;33997;53.278;9.708;2022-09-20T09:07:11;5.47;;;1.20;;
48207;SDS011;33997;53.278;9.708;2022-09-20T09:09:43;5.40;;;1.00;;
48207;SDS011;33997;53.278;9.708;2022-09-20T09:12:18;8.43;;;1.30;;
48207;SDS011;33997;53.278;9.708;2022-09-20T09:14:50;7.30;;;0.95;;
48207;SDS011;33997;53.278;9.708;2022-09-20T09:17:25;7.65;;;1.27;;
48207;SDS011;33997;53.278;9.708;2022-09-20T09:19:53;5.13;;;1.00;;
48207;SDS011;33997;53.278;9.708;2022-09-20T09:22:22;8.45;;;1.42;;
48207;SDS011;33997;53.278;9.708;2022-09-20T09:25:05;9.38;;;1.35;;
48207;SDS011;33997;53.278;9.708;2022-09-20T09:27:31;7.00;;;1.20;;
48207;SDS011;33997;53.278;9.708;2022-09-20T09:29:59;7.78;;;1.17;;
48207;SDS011;33997;53.278;9.708;2022-09-20T09:32:25;12.13;;;1.25;;
48207;SDS011;33997;53.278;9.708;2022-09-20T09:34:53;9.10;;;1.35;;
48207;SDS011;33997;53.278;9.708;2022-09-20T09:37:22;5.60;;;1.17;;
48207;SDS011;33997;53.278;9.708;2022-09-20T09:39:54;6.72;;;1.08;;
48207;SDS011;33997;53.278;9.708;2022-09-20T09:42:46;6.53;;;1.20;;
48207;SDS011;33997;53.278;9.708;2022-09-20T09:45:28;10.68;;;1.42;;
48207;SDS011;33997;53.278;9.708;2022-09-20T09:47:54;10.57;;;1.43;;
48207;SDS011;33997;53.278;9.708;2022-09-20T09:50:23;6.47;;;0.90;;
48207;SDS011;33997;53.278;9.708;2022-09-20T09:52:59;7.40;;;1.38;;
48207;SDS011;33997;53.278;9.708;2022-09-20T09:55:30;6.38;;;0.80;;
48207;SDS011;33997;53.278;9.708;2022-09-20T09:58:20;4.30;;;1.00;;
48207;SDS011;33997;53.278;9.708;2022-09-20T10:01:03;9.73;;;1.23;;
48207;SDS011;33997;53.278;9.708;2022-09-20T10:03:40;2.88;;;0.60;;
48207;SDS011;33997;53.278;9.708;2022-09-20T10:06:16;6.45;;;1.10;;
48207;SDS011;33997;53.278;9.708;2022-09-20T10:08:54;7.63;;;1.35;;
48207;SDS011;33997;53.278;9.708;2022-09-20T10:11:45;7.18;;;0.80;;
48207;SDS011;33997;53.278;9.708;2022-09-20T10:23:12;6.10;;;0.80;;
48207;SDS011;33997;53.278;9.708;2022-09-20T10:25:51;5.47;;;1.10;;
48207;SDS011;33997;53.278;9.708;2022-09-20T10:31:21;5.22;;;0.93;;
48207;SDS011;33997;53.278;9.708;2022-09-20T10:34:22;5.90;;;0.93;;
48207;SDS011;33997;53.278;9.708;2022-09-20T10:37:01;10.45;;;1.20;;
48207;SDS011;33997;53.278;9.708;2022-09-20T10:47:38;2.85;;;0.70;;
48207;SDS011;33997;53.278;9.708;2022-09-20T10:50:35;8.63;;;1.00;;
48207;SDS011;33997;53.278;9.708;2022-09-20T10:56:38;7.55;;;1.20;;
48207;SDS011;33997;53.278;9.708;2022-09-20T10:59:24;6.22;;;1.20;;
48207;SDS011;33997;53.278;9.708;2022-09-20T11:02:15;4.70;;;1.00;;
48207;SDS011;33997;53.278;9.708;2022-09-20T11:15:43;5.50;;;1.05;;
48207;SDS011;33997;53.278;9.708;2022-09-20T11:18:24;4.68;;;1.42;;
48207;SDS011;33997;53.278;9.708;2022-09-20T11:20:59;6.72;;;1.17;;
48207;SDS011;33997;53.278;9.708;2022-09-20T11:23:39;5.55;;;1.20;;
48207;SDS011;33997;53.278;9.708;2022-09-20T11:29:19;7.65;;;1.00;;
48207;SDS011;33997;53.278;9.708;2022-09-20T11:31:51;4.45;;;0.90;;
48207;SDS011;33997;53.278;9.708;2022-09-20T11:34:22;3.92;;;1.23;;
48207;SDS011;33997;53.278;9.708;2022-09-20T11:37:00;7.35;;;0.98;;
48207;SDS011;33997;53.278;9.708;2022-09-20T11:39:36;5.63;;;1.02;;
48207;SDS011;33997;53.278;9.708;2022-09-20T11:42:10;7.70;;;1.42;;
48207;SDS011;33997;53.278;9.708;2022-09-20T11:44:55;7.78;;;1.13;;
48207;SDS011;33997;53.278;9.708;2022-09-20T11:47:28;5.10;;;0.93;;
48207;SDS011;33997;53.278;9.708;2022-09-20T11:53:16;4.35;;;0.93;;
48207;SDS011;33997;53.278;9.708;2022-09-20T11:58:51;7.68;;;1.35;;
48207;SDS011;33997;53.278;9.708;2022-09-20T12:01:38;6.25;;;1.00;;
48207;SDS011;33997;53.278;9.708;2022-09-20T12:04:10;6.75;;;1.10;;
48207;SDS011;33997;53.278;9.708;2022-09-20T12:06:44;4.45;;;0.73;;
48207;SDS011;33997;53.278;9.708;2022-09-20T12:09:22;4.35;;;1.00;;
48207;SDS011;33997;53.278;9.708;2022-09-20T12:11:50;6.35;;;1.13;;
48207;SDS011;33997;53.278;9.708;2022-09-20T12:14:21;6.72;;;1.00;;
48207;SDS011;33997;53.278;9.708;2022-09-20T12:16:50;3.00;;;0.90;;
48207;SDS011;33997;53.278;9.708;2022-09-20T12:22:14;5.40;;;1.13;;
48207;SDS011;33997;53.278;9.708;2022-09-20T12:24:40;7.63;;;1.10;;
48207;SDS011;33997;53.278;9.708;2022-09-20T12:29:53;6.82;;;0.77;;
48207;SDS011;33997;53.278;9.708;2022-09-20T12:43:35;3.28;;;0.70;;
48207;SDS011;33997;53.278;9.708;2022-09-20T12:46:16;6.15;;;1.00;;
48207;SDS011;33997;53.278;9.708;2022-09-20T12:49:11;4.72;;;0.77;;
48207;SDS011;33997;53.278;9.708;2022-09-20T12:52:19;5.80;;;1.05;;
48207;SDS011;33997;53.278;9.708;2022-09-20T13:03:30;6.22;;;0.90;;
48207;SDS011;33997;53.278;9.708;2022-09-20T13:08:45;8.15;;;0.77;;
48207;SDS011;33997;53.278;9.708;2022-09-20T13:19:24;5.88;;;1.02;;
48207;SDS011;33997;53.278;9.708;2022-09-20T13:22:00;6.75;;;1.08;;
48207;SDS011;33997;53.278;9.708;2022-09-20T13:24:36;8.55;;;1.27;;
48207;SDS011;33997;53.278;9.708;2022-09-20T13:27:08;6.70;;;1.10;;
48207;SDS011;33997;53.278;9.708;2022-09-20T13:29:40;5.00;;;0.93;;
48207;SDS011;33997;53.278;9.708;2022-09-20T13:32:27;2.70;;;0.68;;
48207;SDS011;33997;53.278;9.708;2022-09-20T13:37:33;5.85;;;0.90;;
48207;SDS011;33997;53.278;9.708;2022-09-20T13:40:01;7.45;;;1.02;;
48207;SDS011;33997;53.278;9.708;2022-09-20T13:42:27;4.85;;;0.77;;
48207;SDS011;33997;53.278;9.708;2022-09-20T13:44:54;4.88;;;1.38;;
48207;SDS011;33997;53.278;9.708;2022-09-20T13:47:27;4.43;;;0.73;;
48207;SDS011;33997;53.278;9.708;2022-09-20T13:49:58;6.32;;;1.05;;
48207;SDS011;33997;53.278;9.708;2022-09-20T13:52:52;3.78;;;0.80;;
48207;SDS011;33997;53.278;9.708;2022-09-20T13:55:33;4.82;;;0.98;;
48207;SDS011;33997;53.278;9.708;2022-09-20T13:58:07;4.28;;;1.02;;
48207;SDS011;33997;53.278;9.708;2022-09-20T14:00:46;6.88;;;0.98;;
48207;SDS011;33997;53.278;9.708;2022-09-20T14:03:17;3.17;;;0.85;;
48207;SDS011;33997;53.278;9.708;2022-09-20T14:05:48;5.65;;;1.10;;
48207;SDS011;33997;53.278;9.708;2022-09-20T14:08:25;4.15;;;1.13;;
48207;SDS011;33997;53.278;9.708;2022-09-20T14:13:54;4.07;;;0.82;;
48207;SDS011;33997;53.278;9.708;2022-09-20T14:16:23;6.10;;;1.27;;
48207;SDS011;33997;53.278;9.708;2022-09-20T14:19:13;5.97;;;1.10;;
48207;SDS011;33997;53.278;9.708;2022-09-20T14:21:41;5.65;;;0.90;;
48207;SDS011;33997;53.278;9.708;2022-09-20T14:26:39;4.50;;;1.05;;
48207;SDS011;33997;53.278;9.708;2022-09-20T14:37:26;7.05;;;1.15;;
48207;SDS011;33997;53.278;9.708;2022-09-20T14:42:53;6.45;;;0.88;;
48207;SDS011;33997;53.278;9.708;2022-09-20T14:45:36;7.90;;;0.98;;
48207;SDS011;33997;53.278;9.708;2022-09-20T14:48:04;3.72;;;1.00;;
48207;SDS011;33997;53.278;9.708;2022-09-20T14:53:35;4.05;;;0.80;;
48207;SDS011;33997;53.278;9.708;2022-09-20T14:58:33;5.78;;;0.95;;
48207;SDS011;33997;53.278;9.708;2022-09-20T15:01:25;5.88;;;0.80;;
48207;SDS011;33997;53.278;9.708;2022-09-20T15:03:51;5.90;;;0.88;;
48207;SDS011;33997;53.278;9.708;2022-09-20T15:06:17;8.70;;;1.67;;
48207;SDS011;33997;53.278;9.708;2022-09-20T15:08:43;14.63;;;8.93;;
48207;SDS011;33997;53.278;9.708;2022-09-20T15:11:12;11.48;;;3.88;;
48207;SDS011;33997;53.278;9.708;2022-09-20T15:13:38;8.18;;;2.63;;
48207;SDS011;33997;53.278;9.708;2022-09-20T15:16:04;8.65;;;2.28;;
48207;SDS011;33997;53.278;9.708;2022-09-20T15:18:31;9.35;;;1.50;;
48207;SDS011;33997;53.278;9.708;2022-09-20T15:21:06;7.38;;;1.20;;
48207;SDS011;33997;53.278;9.708;2022-09-20T15:23:32;7.97;;;1.67;;
48207;SDS011;33997;53.278;9.708;2022-09-20T15:25:57;3.60;;;1.20;;
48207;SDS011;33997;53.278;9.708;2022-09-20T15:28:24;5.10;;;1.30;;
48207;SDS011;33997;53.278;9.708;2022-09-20T15:30:50;6.22;;;1.20;;
48207;SDS011;33997;53.278;9.708;2022-09-20T15:33:17;5.90;;;1.15;;
48207;SDS011;33997;53.278;9.708;2022-09-20T15:35:43;3.78;;;0.95;;
48207;SDS011;33997;53.278;9.708;2022-09-20T15:38:10;4.47;;;1.10;;
48207;SDS011;33997;53.278;9.708;2022-09-20T15:40:40;8.05;;;1.30;;
48207;SDS011;33997;53.278;9.708;2022-09-20T15:43:07;4.72;;;1.23;;
48207;SDS011;33997;53.278;9.708;2022-09-20T15:45:35;3.30;;;0.75;;
48207;SDS011;33997;53.278;9.708;2022-09-20T15:48:16;5.53;;;0.93;;
48207;SDS011;33997;53.278;9.708;2022-09-20T15:53:27;4.07;;;0.82;;
48207;SDS011;33997;53.278;9.708;2022-09-20T15:55:55;5.45;;;0.90;;
48207;SDS011;33997;53.278;9.708;2022-09-20T15:58:23;1.98;;;0.90;;
48207;SDS011;33997;53.278;9.708;2022-09-20T16:00:49;6.43;;;1.20;;
48207;SDS011;33997;53.278;9.708;2022-09-20T16:03:15;4.55;;;1.00;;
48207;SDS011;33997;53.278;9.708;2022-09-20T16:05:41;5.88;;;1.02;;
48207;SDS011;33997;53.278;9.708;2022-09-20T16:08:07;4.93;;;0.82;;
48207;SDS011;33997;53.278;9.708;2022-09-20T16:10:33;6.00;;;0.98;;
48207;SDS011;33997;53.278;9.708;2022-09-20T16:12:58;4.32;;;1.00;;
48207;SDS011;33997;53.278;9.708;2022-09-20T16:15:23;3.85;;;0.80;;
48207;SDS011;33997;53.278;9.708;2022-09-20T16:17:49;5.72;;;1.17;;
48207;SDS011;33997;53.278;9.708;2022-09-20T16:20:33;3.78;;;0.85;;
48207;SDS011;33997;53.278;9.708;2022-09-20T16:22:59;6.25;;;1.08;;
48207;SDS011;33997;53.278;9.708;2022-09-20T16:25:24;3.65;;;0.88;;
48207;SDS011;33997;53.278;9.708;2022-09-20T16:27:50;4.82;;;1.08;;
48207;SDS011;33997;53.278;9.708;2022-09-20T16:30:15;5.75;;;1.17;;
48207;SDS011;33997;53.278;9.708;2022-09-20T16:32:41;5.93;;;1.40;;
48207;SDS011;33997;53.278;9.708;2022-09-20T16:35:09;3.38;;;0.77;;
48207;SDS011;33997;53.278;9.708;2022-09-20T16:37:35;5.55;;;1.27;;
48207;SDS011;33997;53.278;9.708;2022-09-20T16:40:00;5.20;;;1.00;;
48207;SDS011;33997;53.278;9.708;2022-09-20T16:42:26;6.50;;;1.20;;
48207;SDS011;33997;53.278;9.708;2022-09-20T16:44:51;6.30;;;1.00;;
48207;SDS011;33997;53.278;9.708;2022-09-20T16:47:17;7.07;;;0.95;;
48207;SDS011;33997;53.278;9.708;2022-09-20T16:49:46;4.13;;;1.30;;
48207;SDS011;33997;53.278;9.708;2022-09-20T16:52:12;5.72;;;1.23;;
48207;SDS011;33997;53.278;9.708;2022-09-20T16:54:38;5.95;;;1.38;;
48207;SDS011;33997;53.278;9.708;2022-09-20T16:57:03;4.80;;;1.20;;
48207;SDS011;33997;53.278;9.708;2022-09-20T16:59:29;4.28;;;1.45;;
48207;SDS011;33997;53.278;9.708;2022-09-20T17:01:55;5.15;;;1.58;;
48207;SDS011;33997;53.278;9.708;2022-09-20T17:04:20;7.90;;;1.73;;
48207;SDS011;33997;53.278;9.708;2022-09-20T17:06:46;5.22;;;1.40;;
48207;SDS011;33997;53.278;9.708;2022-09-20T17:09:13;6.65;;;1.48;;
48207;SDS011;33997;53.278;9.708;2022-09-20T17:11:48;4.75;;;1.42;;
48207;SDS011;33997;53.278;9.708;2022-09-20T17:14:15;3.75;;;1.30;;
48207;SDS011;33997;53.278;9.708;2022-09-20T17:16:42;5.38;;;1.85;;
48207;SDS011;33997;53.278;9.708;2022-09-20T17:19:12;5.13;;;1.60;;
48207;SDS011;33997;53.278;9.708;2022-09-20T17:21:40;10.13;;;1.55;;
48207;SDS011;33997;53.278;9.708;2022-09-20T17:24:09;5.55;;;1.65;;
48207;SDS011;33997;53.278;9.708;2022-09-20T17:26:35;6.40;;;1.80;;
48207;SDS011;33997;53.278;9.708;2022-09-20T17:29:03;5.68;;;1.20;;
48207;SDS011;33997;53.278;9.708;2022-09-20T17:31:31;3.08;;;1.20;;
48207;SDS011;33997;53.278;9.708;2022-09-20T17:33:59;7.00;;;1.20;;
48207;SDS011;33997;53.278;9.708;2022-09-20T17:36:27;5.28;;;1.48;;
48207;SDS011;33997;53.278;9.708;2022-09-20T17:38:55;6.05;;;1.83;;
48207;SDS011;33997;53.278;9.708;2022-09-20T17:41:22;5.90;;;1.65;;
48207;SDS011;33997;53.278;9.708;2022-09-20T17:43:51;7.45;;;2.28;;
48207;SDS011;33997;53.278;9.708;2022-09-20T17:46:19;7.20;;;2.22;;
48207;SDS011;33997;53.278;9.708;2022-09-20T17:48:51;8.18;;;1.80;;
48207;SDS011;33997;53.278;9.708;2022-09-20T17:51:19;4.45;;;1.73;;
48207;SDS011;33997;53.278;9.708;2022-09-20T17:53:46;6.10;;;2.13;;
48207;SDS011;33997;53.278;9.708;2022-09-20T17:56:12;7.07;;;1.85;;
48207;SDS011;33997;53.278;9.708;2022-09-20T17:58:38;10.00;;;2.25;;
48207;SDS011;33997;53.278;9.708;2022-09-20T18:01:05;6.32;;;1.73;;
48207;SDS011;33997;53.278;9.708;2022-09-20T18:03:35;5.85;;;1.63;;
48207;SDS011;33997;53.278;9.708;2022-09-20T18:08:37;8.70;;;2.17;;
48207;SDS011;33997;53.278;9.708;2022-09-20T18:11:02;5.47;;;1.75;;
48207;SDS011;33997;53.278;9.708;2022-09-20T18:13:28;5.75;;;1.70;;
48207;SDS011;33997;53.278;9.708;2022-09-20T18:15:54;4.03;;;1.58;;
48207;SDS011;33997;53.278;9.708;2022-09-20T18:18:20;10.05;;;2.40;;
48207;SDS011;33997;53.278;9.708;2022-09-20T18:20:46;8.32;;;1.98;;
48207;SDS011;33997;53.278;9.708;2022-09-20T18:23:12;6.95;;;2.53;;
48207;SDS011;33997;53.278;9.708;2022-09-20T18:25:38;8.85;;;2.75;;
48207;SDS011;33997;53.278;9.708;2022-09-20T18:28:22;5.95;;;2.47;;
48207;SDS011;33997;53.278;9.708;2022-09-20T18:30:57;6.28;;;2.47;;
48207;SDS011;33997;53.278;9.708;2022-09-20T18:33:24;8.98;;;3.00;;
48207;SDS011;33997;53.278;9.708;2022-09-20T18:35:50;6.75;;;2.65;;
48207;SDS011;33997;53.278;9.708;2022-09-20T18:38:15;7.30;;;2.42;;
48207;SDS011;33997;53.278;9.708;2022-09-20T18:40:41;5.80;;;2.70;;
48207;SDS011;33997;53.278;9.708;2022-09-20T18:43:07;6.32;;;2.65;;
48207;SDS011;33997;53.278;9.708;2022-09-20T18:45:33;7.85;;;2.47;;
48207;SDS011;33997;53.278;9.708;2022-09-20T18:47:58;9.77;;;3.10;;
48207;SDS011;33997;53.278;9.708;2022-09-20T18:50:24;6.57;;;2.78;;
48207;SDS011;33997;53.278;9.708;2022-09-20T18:52:50;5.35;;;2.60;;
48207;SDS011;33997;53.278;9.708;2022-09-20T18:55:16;9.25;;;3.58;;
48207;SDS011;33997;53.278;9.708;2022-09-20T18:57:43;8.00;;;3.50;;
48207;SDS011;33997;53.278;9.708;2022-09-20T19:00:10;11.63;;;4.32;;
48207;SDS011;33997;53.278;9.708;2022-09-20T19:02:51;8.27;;;4.22;;
48207;SDS011;33997;53.278;9.708;2022-09-20T19:05:28;12.23;;;4.18;;
48207;SDS011;33997;53.278;9.708;2022-09-20T19:11:03;11.40;;;5.07;;
48207;SDS011;33997;53.278;9.708;2022-09-20T19:13:34;12.40;;;5.32;;
48207;SDS011;33997;53.278;9.708;2022-09-20T19:16:15;8.77;;;4.30;;
48207;SDS011;33997;53.278;9.708;2022-09-20T19:18:50;11.07;;;4.25;;
48207;SDS011;33997;53.278;9.708;2022-09-20T19:21:21;8.25;;;4.72;;
48207;SDS011;33997;53.278;9.708;2022-09-20T19:26:46;12.70;;;4.03;;
48207;SDS011;33997;53.278;9.708;2022-09-20T19:29:19;10.40;;;3.72;;
48207;SDS011;33997;53.278;9.708;2022-09-20T19:31:51;9.05;;;3.65;;